Strona główna
METAR-TAF:

Lotnisko :

Asunción, Paragwaj

Port lotniczy Asunción

Szerokość geograficzna: 25-16S, Długość geograficzna: 057-38W, wysokość: 101 m

Aktualna obserwacja pogody

Raport powstał 50 minut temu, godzina 23:00 UTC
Cisza
Temperatura 15°C
Wilgotność 72%
Ciśnienie 1021 hPa
Widzialność: 9000 m

METAR: SGAS 282300Z 00000KT 9000 NSC 15/10 Q1021

czas: 19:50 (23:50 UTC)

Prognoza

Raport powstał 2 godziny i 50 minut temu, godzina 21:00 UTC
Prognoza ważna od 29 godzina 00 UTC do 30 godzina 00 UTC
Wiatr 5 kt od zachodnio-południowy zachód
Widzialność 10 km lub więcej
Brak chmur poniżej 1500 m i brak chmur cumulonimbus
Stopniowe zmiany
od 29 godzina 14 UTC do 29 godzina 18 UTC
Wiatr 5 kt od południowy wschód
Widzialność 10 km lub więcej
Rozproszone chmury na wysokości 3000 ft
Od 29 godzina 2200 UTC
Widzialność 10 km lub więcej
Brak chmur poniżej 1500 m i brak chmur cumulonimbus

TAF: SGAS 282100Z 2900/3000 24005KT CAVOK TX19/2918Z TN06/2910Z BECMG 2914/2918 14005KT 9999 SCT030 FM292200 CAVOK

METAR-TAF

Obserwacja i prognoza pogody dla ponad 4000 lotnisk (raport METAR i TAF).

Dostępne stacje oznaczono żółtymi i czerwonymi punktami na mapie.

Najedź kursorem aby zobaczyć nazwę stacji.

Kliknij aby zobaczyć obserwacje i prognozy pogody.

Aby zmienić mapę: kliknij na zielony przycisk z czarnym krzyżykiem, aby powiększyć; na zielony przycisk z myślnikiem, aby pomniejszyć; na zielone strzałki, aby przejść do map sąsiednich.


METAR-TAF: